createdAt,value
2018-02-27T00:01:13.001Z,15.65
2018-02-27T00:03:39.558Z,15.50
2018-02-27T00:06:06.134Z,15.35
2018-02-27T00:08:33.043Z,16.45
2018-02-27T00:10:59.641Z,14.52
2018-02-27T00:13:26.210Z,15.77
2018-02-27T00:15:52.762Z,15.70
2018-02-27T00:18:19.325Z,14.75
2018-02-27T00:20:45.889Z,16.23
2018-02-27T00:23:12.465Z,15.95
2018-02-27T00:25:39.545Z,16.10
2018-02-27T00:28:06.109Z,15.85
2018-02-27T00:30:32.705Z,15.60
2018-02-27T00:32:59.265Z,15.00
2018-02-27T00:35:26.197Z,15.43
2018-02-27T00:37:52.724Z,15.73
2018-02-27T00:40:19.287Z,14.80
2018-02-27T00:42:45.841Z,16.87
2018-02-27T00:45:12.369Z,14.93
2018-02-27T00:47:38.939Z,15.85
2018-02-27T00:50:05.510Z,14.25
2018-02-27T00:52:32.418Z,13.80
2018-02-27T00:54:59.857Z,13.43
2018-02-27T00:57:26.425Z,13.70
2018-02-27T00:59:52.958Z,12.82
2018-02-27T01:02:19.525Z,13.62
2018-02-27T01:04:46.078Z,15.18
2018-02-27T01:07:12.614Z,13.35
2018-02-27T01:09:39.185Z,13.85
2018-02-27T01:12:05.745Z,12.50
2018-02-27T01:14:32.661Z,11.00
2018-02-27T01:16:59.234Z,12.90
2018-02-27T01:19:25.801Z,11.90
2018-02-27T01:21:52.333Z,11.85
2018-02-27T01:24:18.897Z,11.98
2018-02-27T01:26:45.493Z,12.20
2018-02-27T01:29:12.030Z,12.52
2018-02-27T01:31:38.642Z,12.40
2018-02-27T01:34:05.577Z,11.95
2018-02-27T01:36:32.100Z,12.45
2018-02-27T01:38:58.659Z,11.80
2018-02-27T01:41:25.226Z,10.40
2018-02-27T01:43:51.765Z,10.80
2018-02-27T01:46:18.350Z,10.65
2018-02-27T01:48:44.914Z,10.93
2018-02-27T01:51:14.461Z,10.80
2018-02-27T01:53:41.050Z,10.55
2018-02-27T01:56:07.998Z,12.05
2018-02-27T01:58:34.547Z,10.90
2018-02-27T02:01:01.130Z,11.00
2018-02-27T02:03:27.698Z,10.75
2018-02-27T02:05:54.234Z,9.95
2018-02-27T02:08:20.832Z,9.10
2018-02-27T02:10:47.512Z,10.75
2018-02-27T02:13:14.041Z,10.27
2018-02-27T02:15:40.980Z,10.65
2018-02-27T02:18:07.553Z,9.23
2018-02-27T02:20:34.483Z,9.63
2018-02-27T02:23:01.049Z,10.60
2018-02-27T02:25:27.981Z,10.65
2018-02-27T02:27:54.566Z,10.48
2018-02-27T02:30:21.134Z,9.15
2018-02-27T02:32:47.698Z,9.55
2018-02-27T02:35:14.225Z,9.65
2018-02-27T02:37:40.786Z,9.32
2018-02-27T02:40:07.353Z,10.13
2018-02-27T02:42:33.882Z,9.25
2018-02-27T02:45:00.465Z,8.40
2018-02-27T02:47:27.025Z,9.13
2018-02-27T02:49:53.550Z,8.70
2018-02-27T02:52:20.122Z,9.48
2018-02-27T02:54:47.049Z,10.30
2018-02-27T02:57:13.573Z,10.10
2018-02-27T02:59:40.134Z,10.07
2018-02-27T03:02:06.697Z,8.05
2018-02-27T03:04:33.236Z,10.20
2018-02-27T03:06:59.854Z,9.13
2018-02-27T03:09:26.415Z,9.55
2018-02-27T03:11:52.957Z,9.07
2018-02-27T03:14:19.530Z,9.82
2018-02-27T03:16:46.090Z,9.38
2018-02-27T03:19:12.637Z,9.65
2018-02-27T03:21:39.217Z,8.73
2018-02-27T03:24:06.146Z,10.20
2018-02-27T03:26:32.677Z,8.38
2018-02-27T03:28:59.281Z,8.93
2018-02-27T03:31:25.848Z,8.60
2018-02-27T03:33:52.374Z,8.60
2018-02-27T03:36:18.946Z,9.25
2018-02-27T03:38:45.503Z,9.35
2018-02-27T03:41:12.058Z,9.48
2018-02-27T03:43:38.613Z,10.95
2018-02-27T03:46:05.558Z,10.13
2018-02-27T03:48:32.085Z,10.38
2018-02-27T03:50:58.646Z,9.77
2018-02-27T03:53:25.209Z,10.90
2018-02-27T03:55:51.773Z,10.00
2018-02-27T03:58:18.334Z,10.40
2018-02-27T04:00:45.270Z,10.32
2018-02-27T04:03:11.797Z,9.73
2018-02-27T04:05:38.358Z,10.02
2018-02-27T04:08:04.922Z,10.95
2018-02-27T04:10:31.886Z,10.52
2018-02-27T04:12:58.818Z,10.50
2018-02-27T04:15:25.382Z,9.50
2018-02-27T04:17:51.902Z,10.70
2018-02-27T04:20:18.466Z,10.85
2018-02-27T04:22:45.026Z,10.40
2018-02-27T04:25:11.929Z,9.32
2018-02-27T04:27:38.529Z,11.50
2018-02-27T04:30:05.100Z,9.98
2018-02-27T04:32:31.626Z,9.57
2018-02-27T04:34:58.585Z,11.70
2018-02-27T04:37:25.516Z,10.02
2018-02-27T04:39:52.444Z,11.00
2018-02-27T04:42:19.002Z,10.55
2018-02-27T04:44:45.569Z,10.63
2018-02-27T04:47:12.098Z,9.63
2018-02-27T04:49:38.652Z,11.63
2018-02-27T04:52:05.206Z,10.45
2018-02-27T04:54:31.761Z,10.40
2018-02-27T04:56:58.331Z,11.12
2018-02-27T04:59:25.266Z,10.30
2018-02-27T05:01:51.794Z,11.63
2018-02-27T05:04:18.360Z,11.82
2018-02-27T05:06:44.929Z,11.90
2018-02-27T05:09:11.841Z,10.50
2018-02-27T05:11:38.430Z,11.25
2018-02-27T05:14:05.369Z,12.05
2018-02-27T05:16:31.898Z,11.10
2018-02-27T05:18:58.452Z,11.23
2018-02-27T05:21:25.022Z,10.15
2018-02-27T05:23:51.917Z,11.95
2018-02-27T05:26:18.474Z,10.50
2018-02-27T05:28:45.109Z,10.77
2018-02-27T05:31:11.721Z,11.27
2018-02-27T05:33:38.318Z,12.55
2018-02-27T05:36:04.885Z,11.12
2018-02-27T05:38:31.421Z,10.60
2018-02-27T05:40:57.990Z,11.02
2018-02-27T05:43:24.546Z,12.07
2018-02-27T05:45:51.077Z,11.00
2018-02-27T05:48:17.640Z,10.45
2018-02-27T05:50:44.202Z,10.98
2018-02-27T05:53:11.154Z,11.05
2018-02-27T05:55:38.094Z,11.15
2018-02-27T05:58:04.662Z,11.60
2018-02-27T06:00:31.569Z,10.30
2018-02-27T06:02:58.249Z,12.48
2018-02-27T06:05:24.810Z,11.10
2018-02-27T06:07:51.411Z,12.23
2018-02-27T06:10:17.961Z,11.88
2018-02-27T06:12:44.550Z,11.00
2018-02-27T06:15:11.082Z,10.30
2018-02-27T06:17:37.670Z,11.52
2018-02-27T06:20:04.239Z,11.45
2018-02-27T06:22:30.765Z,10.80
2018-02-27T06:24:57.333Z,10.77
2018-02-27T06:27:23.910Z,11.05
2018-02-27T06:29:57.444Z,12.63
2018-02-27T06:32:24.012Z,11.00
2018-02-27T06:34:50.947Z,10.60
2018-02-27T06:37:24.515Z,11.82
2018-02-27T06:39:51.093Z,12.65
2018-02-27T06:42:17.630Z,12.70
2018-02-27T06:44:44.254Z,11.52
2018-02-27T06:47:10.819Z,11.45
2018-02-27T06:49:37.353Z,11.98
2018-02-27T06:52:03.998Z,10.90
2018-02-27T06:54:30.566Z,11.55
2018-02-27T06:56:57.108Z,11.30
2018-02-27T06:59:23.677Z,10.50
2018-02-27T07:01:50.254Z,11.02
2018-02-27T07:04:17.157Z,11.60
2018-02-27T07:06:43.722Z,11.60
2018-02-27T07:09:10.291Z,11.27
2018-02-27T07:11:37.203Z,12.02
2018-02-27T07:14:03.824Z,11.25
2018-02-27T07:16:30.398Z,12.45
2018-02-27T07:18:57.125Z,12.30
2018-02-27T07:21:23.703Z,11.38
2018-02-27T07:23:50.266Z,12.75
2018-02-27T07:26:16.807Z,12.52
2018-02-27T07:28:43.714Z,11.30
2018-02-27T07:31:10.659Z,10.95
2018-02-27T07:33:37.562Z,12.20
2018-02-27T07:36:04.141Z,10.05
2018-02-27T07:38:30.754Z,10.85
2018-02-27T07:40:57.285Z,12.05
2018-02-27T07:43:23.864Z,10.60
2018-02-27T07:45:50.429Z,10.38
2018-02-27T07:48:17.018Z,11.48
2018-02-27T07:50:43.594Z,10.98
2018-02-27T07:53:10.162Z,10.40
2018-02-27T07:55:36.710Z,11.85
2018-02-27T07:58:03.282Z,11.65
2018-02-27T08:00:29.882Z,11.10
2018-02-27T08:02:56.409Z,13.07
2018-02-27T08:05:22.970Z,11.75
2018-02-27T08:07:49.545Z,12.13
2018-02-27T08:10:16.074Z,11.02
2018-02-27T08:12:42.650Z,12.05
2018-02-27T08:15:09.229Z,12.60
2018-02-27T08:17:36.135Z,19.50
2018-02-27T08:20:02.874Z,14.65
2018-02-27T08:22:29.458Z,11.82
2018-02-27T08:24:55.990Z,12.52
2018-02-27T08:27:22.556Z,12.75
2018-02-27T08:29:49.159Z,11.80
2018-02-27T08:32:15.701Z,13.10
2018-02-27T08:34:42.322Z,11.90
2018-02-27T08:37:09.270Z,13.43
2018-02-27T08:39:36.177Z,12.80
2018-02-27T08:42:02.782Z,11.82
2018-02-27T08:44:29.350Z,12.30
2018-02-27T08:46:55.889Z,14.10
2018-02-27T08:49:22.448Z,14.38
2018-02-27T08:51:49.033Z,14.10
2018-02-27T08:54:15.553Z,13.52
2018-02-27T08:56:42.114Z,13.90
2018-02-27T08:59:08.669Z,12.50
2018-02-27T09:01:35.201Z,12.50
2018-02-27T09:04:01.765Z,13.15
2018-02-27T09:06:28.338Z,12.88
2018-02-27T09:08:55.245Z,13.68
2018-02-27T09:11:21.858Z,13.27
2018-02-27T09:13:48.786Z,14.00
2018-02-27T09:16:15.325Z,13.30
2018-02-27T09:18:41.946Z,13.50
2018-02-27T09:21:08.514Z,12.65
2018-02-27T09:23:35.045Z,13.20
2018-02-27T09:26:01.618Z,12.50
2018-02-27T09:28:28.181Z,13.82
2018-02-27T09:30:55.117Z,13.80
2018-02-27T09:33:21.686Z,15.40
2018-02-27T09:35:48.621Z,13.65
2018-02-27T09:38:15.596Z,12.10
2018-02-27T09:40:42.580Z,13.45
2018-02-27T09:43:09.146Z,13.70
2018-02-27T09:45:35.670Z,14.25
2018-02-27T09:48:02.621Z,13.85
2018-02-27T09:50:29.558Z,13.07
2018-02-27T09:52:56.085Z,13.65
2018-02-27T09:55:22.657Z,13.60
2018-02-27T09:57:49.612Z,14.57
2018-02-27T10:00:16.145Z,13.70
2018-02-27T10:02:42.729Z,15.00
2018-02-27T10:05:09.302Z,13.95
2018-02-27T10:07:35.842Z,14.70
2018-02-27T10:10:02.472Z,14.52
2018-02-27T10:12:29.013Z,16.45
2018-02-27T10:14:55.569Z,13.20
2018-02-27T10:17:22.162Z,13.80
2018-02-27T10:19:48.734Z,13.80
2018-02-27T10:22:15.278Z,14.45
2018-02-27T10:24:41.866Z,14.25
2018-02-27T10:27:08.425Z,12.77
2018-02-27T10:29:35.057Z,15.25
2018-02-27T10:32:01.690Z,13.77
2018-02-27T10:34:28.635Z,15.23
2018-02-27T10:36:55.173Z,15.43
2018-02-27T10:39:21.737Z,13.98
2018-02-27T10:41:48.668Z,14.38
2018-02-27T10:44:15.260Z,12.45
2018-02-27T10:46:41.829Z,13.45
2018-02-27T10:49:08.406Z,14.55
2018-02-27T10:51:34.947Z,14.13
2018-02-27T10:54:01.514Z,13.00
2018-02-27T10:56:28.078Z,14.40
2018-02-27T10:59:01.862Z,13.45
2018-02-27T11:01:28.482Z,14.07
2018-02-27T11:03:55.026Z,13.25
2018-02-27T11:06:21.594Z,12.10
2018-02-27T11:08:48.160Z,13.80
2018-02-27T11:11:14.698Z,13.82
2018-02-27T11:13:41.266Z,12.50
2018-02-27T11:16:08.222Z,13.20
2018-02-27T11:18:34.793Z,12.18
2018-02-27T11:21:01.733Z,12.73
2018-02-27T11:23:28.297Z,12.48
2018-02-27T11:25:55.210Z,13.48
2018-02-27T11:28:21.786Z,10.68
2018-02-27T11:30:48.771Z,10.90
2018-02-27T11:33:15.317Z,12.05
2018-02-27T11:35:41.890Z,12.77
2018-02-27T11:38:08.458Z,12.23
2018-02-27T11:40:35.011Z,12.55
2018-02-27T11:43:01.610Z,12.88
2018-02-27T11:45:28.176Z,12.07
2018-02-27T11:48:01.584Z,12.40
2018-02-27T11:50:28.153Z,10.20
2018-02-27T11:52:54.697Z,10.23
2018-02-27T11:55:21.253Z,12.02
2018-02-27T11:57:47.818Z,9.73
2018-02-27T12:00:14.361Z,11.63
2018-02-27T12:02:40.933Z,10.95
2018-02-27T12:05:07.874Z,9.35
2018-02-27T12:07:34.785Z,9.63
2018-02-27T12:10:01.361Z,9.73
2018-02-27T12:12:27.946Z,8.98
2018-02-27T12:14:55.869Z,8.95
2018-02-27T12:17:22.438Z,8.43
2018-02-27T12:19:49.019Z,9.90
2018-02-27T12:22:15.909Z,10.90
2018-02-27T12:24:42.472Z,10.60
2018-02-27T12:27:09.038Z,11.02
2018-02-27T12:29:35.562Z,8.70
2018-02-27T12:32:02.210Z,10.20
2018-02-27T12:34:28.797Z,10.70
2018-02-27T12:36:55.693Z,8.98
2018-02-27T12:39:22.270Z,10.20
2018-02-27T12:41:48.829Z,11.30
2018-02-27T12:44:15.366Z,11.52
2018-02-27T12:46:41.925Z,10.63
2018-02-27T12:49:08.495Z,11.25
2018-02-27T12:51:35.409Z,10.98
2018-02-27T12:54:01.971Z,10.90
2018-02-27T12:56:28.542Z,10.57
2018-02-27T12:58:55.445Z,9.88
2018-02-27T13:01:22.008Z,9.90
2018-02-27T13:03:48.584Z,9.55
2018-02-27T13:06:15.511Z,9.63
2018-02-27T13:08:42.069Z,8.95
2018-02-27T13:11:08.634Z,9.02
2018-02-27T13:13:35.545Z,8.65
2018-02-27T13:16:02.146Z,8.70
2018-02-27T13:18:29.080Z,9.07
2018-02-27T13:20:55.626Z,8.88
2018-02-27T13:23:22.194Z,9.77
2018-02-27T13:25:49.130Z,8.63
2018-02-27T13:28:15.666Z,8.60
2018-02-27T13:30:42.320Z,7.68
2018-02-27T13:33:08.879Z,8.30
2018-02-27T13:35:35.405Z,9.38
2018-02-27T13:38:01.990Z,10.20
2018-02-27T13:40:28.934Z,11.18
2018-02-27T13:42:55.574Z,9.82
2018-02-27T13:45:22.145Z,8.43
2018-02-27T13:47:49.082Z,8.80
2018-02-27T13:50:15.624Z,9.00
2018-02-27T13:52:42.194Z,10.38
2018-02-27T13:55:09.130Z,8.85
2018-02-27T13:57:35.664Z,9.02
2018-02-27T14:00:02.282Z,10.07
2018-02-27T14:02:29.829Z,9.82
2018-02-27T14:04:56.750Z,9.93
2018-02-27T14:07:23.326Z,9.13
2018-02-27T14:09:50.289Z,11.20
2018-02-27T14:12:16.836Z,10.00
2018-02-27T14:14:43.414Z,9.70
2018-02-27T14:17:09.983Z,9.07
2018-02-27T14:19:43.554Z,10.35
2018-02-27T14:22:10.143Z,9.30
2018-02-27T14:24:36.682Z,9.55
2018-02-27T14:27:03.290Z,9.88
2018-02-27T14:29:29.871Z,9.90
2018-02-27T14:31:56.430Z,8.48
2018-02-27T14:34:22.993Z,10.27
2018-02-27T14:36:49.593Z,9.82
2018-02-27T14:39:16.133Z,10.10
2018-02-27T14:41:42.706Z,9.60
2018-02-27T14:44:09.274Z,9.55
2018-02-27T14:46:35.809Z,9.93
2018-02-27T14:49:02.382Z,8.25
2018-02-27T14:51:28.950Z,8.98
2018-02-27T14:53:55.862Z,8.98
2018-02-27T14:56:22.434Z,8.77
2018-02-27T14:58:49.013Z,9.13
2018-02-27T15:01:15.922Z,8.10
2018-02-27T15:03:42.492Z,7.78
2018-02-27T15:06:09.441Z,7.85
2018-02-27T15:08:35.986Z,9.05
2018-02-27T15:11:02.558Z,9.20
2018-02-27T15:13:29.493Z,9.85
2018-02-27T15:15:56.026Z,8.88
2018-02-27T15:18:22.601Z,9.20
2018-02-27T15:20:49.562Z,10.63
2018-02-27T15:23:16.466Z,9.95
2018-02-27T15:25:43.030Z,9.07
2018-02-27T15:28:09.622Z,10.15
2018-02-27T15:30:36.541Z,9.40
2018-02-27T15:33:03.153Z,9.45
2018-02-27T15:35:29.723Z,8.93
2018-02-27T15:37:56.258Z,8.70
2018-02-27T15:40:22.813Z,9.20
2018-02-27T15:42:49.370Z,10.10
2018-02-27T15:45:15.902Z,10.20
2018-02-27T15:47:42.476Z,10.25
2018-02-27T15:50:09.041Z,8.85
2018-02-27T15:52:35.981Z,10.27
2018-02-27T15:55:02.621Z,9.90
2018-02-27T15:57:29.186Z,10.52
2018-02-27T15:59:55.734Z,9.95
2018-02-27T16:02:22.298Z,10.23
2018-02-27T16:04:49.239Z,10.85
2018-02-27T16:07:15.769Z,10.43
2018-02-27T16:09:42.342Z,9.23
2018-02-27T16:12:09.336Z,10.43
2018-02-27T16:14:35.928Z,10.60
2018-02-27T16:17:02.901Z,14.23
2018-02-27T16:19:29.850Z,10.93
2018-02-27T16:21:56.382Z,11.23
2018-02-27T16:24:22.941Z,10.88
2018-02-27T16:26:49.517Z,10.93
2018-02-27T16:29:16.417Z,10.73
2018-02-27T16:31:43.041Z,9.20
2018-02-27T16:34:09.612Z,11.15
2018-02-27T16:36:36.151Z,11.88
2018-02-27T16:39:02.821Z,10.15
2018-02-27T16:41:29.401Z,11.07
2018-02-27T16:43:56.306Z,11.02
2018-02-27T16:46:22.874Z,10.07
2018-02-27T16:48:49.433Z,10.77
2018-02-27T16:51:15.962Z,9.55
2018-02-27T16:53:42.529Z,11.48
2018-02-27T16:56:09.097Z,10.07
2018-02-27T16:58:36.006Z,10.45
2018-02-27T17:01:02.581Z,10.43
2018-02-27T17:03:29.158Z,10.50
2018-02-27T17:05:55.701Z,11.35
2018-02-27T17:08:22.642Z,11.15
2018-02-27T17:10:49.578Z,12.30
2018-02-27T17:13:16.120Z,10.80
2018-02-27T17:15:42.685Z,11.10
2018-02-27T17:18:09.281Z,11.77
2018-02-27T17:20:35.875Z,11.12
2018-02-27T17:23:02.427Z,12.45
2018-02-27T17:25:28.998Z,11.45
2018-02-27T17:27:55.899Z,11.35
2018-02-27T17:30:22.456Z,12.48
2018-02-27T17:32:49.142Z,12.77
2018-02-27T17:35:16.062Z,13.27
2018-02-27T17:37:42.625Z,11.70
2018-02-27T17:40:09.201Z,12.75
2018-02-27T17:42:36.098Z,12.90
2018-02-27T17:45:02.670Z,13.70
2018-02-27T17:47:29.237Z,12.60
2018-02-27T17:49:56.134Z,12.85
2018-02-27T17:52:22.698Z,13.18
2018-02-27T17:54:49.281Z,13.35
2018-02-27T17:57:15.814Z,12.35
2018-02-27T17:59:42.382Z,12.98
2018-02-27T18:02:09.366Z,12.05
2018-02-27T18:04:35.958Z,11.43
2018-02-27T18:07:02.535Z,14.02
2018-02-27T18:09:29.498Z,12.07
2018-02-27T18:11:56.397Z,13.45
2018-02-27T18:14:22.995Z,12.55
2018-02-27T18:16:49.939Z,12.85
2018-02-27T18:19:16.486Z,13.27
2018-02-27T18:21:43.150Z,13.02
2018-02-27T18:24:09.745Z,13.25
2018-02-27T18:26:36.281Z,12.35
2018-02-27T18:29:02.850Z,13.15
2018-02-27T18:31:29.428Z,12.75
2018-02-27T18:33:56.433Z,12.80
2018-02-27T18:36:23.774Z,13.98
2018-02-27T18:38:50.717Z,12.85
2018-02-27T18:41:18.222Z,13.27
2018-02-27T18:43:44.836Z,12.40
2018-02-27T18:46:11.786Z,13.45
2018-02-27T18:48:38.689Z,12.57
2018-02-27T18:51:05.249Z,12.50
2018-02-27T18:53:31.818Z,12.02
2018-02-27T18:55:58.350Z,12.05
2018-02-27T18:58:26.323Z,11.35
2018-02-27T19:00:52.889Z,12.40
2018-02-27T19:03:19.429Z,11.93
2018-02-27T19:05:45.993Z,12.73
2018-02-27T19:08:12.569Z,15.30
2018-02-27T19:10:39.551Z,15.15
2018-02-27T19:13:06.109Z,12.40
2018-02-27T19:15:32.869Z,12.90
2018-02-27T19:17:59.407Z,12.65
2018-02-27T19:20:25.974Z,12.52
2018-02-27T19:22:52.542Z,13.18
2018-02-27T19:25:19.082Z,13.32
2018-02-27T19:27:45.646Z,14.45
2018-02-27T19:30:13.118Z,11.63
2018-02-27T19:32:40.026Z,14.02
2018-02-27T19:35:06.630Z,13.52
2018-02-27T19:37:34.262Z,14.40
2018-02-27T19:40:02.103Z,13.68
2018-02-27T19:42:28.682Z,14.75
2018-02-27T19:44:56.243Z,12.68
2018-02-27T19:47:22.871Z,13.15
2018-02-27T19:49:51.301Z,17.37
2018-02-27T19:52:21.791Z,17.90
2018-02-27T19:54:51.206Z,14.30
2018-02-27T19:57:18.491Z,14.77
2018-02-27T19:59:45.070Z,15.30
2018-02-27T20:02:12.882Z,14.15
2018-02-27T20:04:39.814Z,13.62
2018-02-27T20:07:06.678Z,14.73
2018-02-27T20:09:33.255Z,13.07
2018-02-27T20:12:00.477Z,15.10
2018-02-27T20:14:27.723Z,12.98
2018-02-27T20:16:54.299Z,13.90
2018-02-27T20:19:20.874Z,13.52
2018-02-27T20:21:47.426Z,13.25
2018-02-27T20:24:16.982Z,12.85
2018-02-27T20:26:43.542Z,14.52
2018-02-27T20:29:16.057Z,13.80
2018-02-27T20:31:43.848Z,13.73
2018-02-27T20:34:10.478Z,12.85
2018-02-27T20:36:37.409Z,14.50
2018-02-27T20:42:01.022Z,12.15
2018-02-27T20:44:27.593Z,13.80
2018-02-27T20:46:54.526Z,13.43
2018-02-27T20:49:21.070Z,14.00
2018-02-27T20:51:47.637Z,13.65
2018-02-27T20:54:14.469Z,14.48
2018-02-27T20:56:41.217Z,15.13
2018-02-27T20:59:07.898Z,14.30
2018-02-27T21:01:34.919Z,13.95
2018-02-27T21:04:01.464Z,13.88
2018-02-27T21:06:28.034Z,13.70
2018-02-27T21:08:54.735Z,14.25
2018-02-27T21:11:21.357Z,13.57
2018-02-27T21:13:48.334Z,12.48
2018-02-27T21:16:14.967Z,13.85
2018-02-27T21:18:41.877Z,13.55
2018-02-27T21:21:08.458Z,13.32
2018-02-27T21:23:36.100Z,13.48
2018-02-27T21:26:02.834Z,14.98
2018-02-27T21:28:29.928Z,14.60
2018-02-27T21:30:56.901Z,14.07
2018-02-27T21:33:23.911Z,13.95
2018-02-27T21:35:50.677Z,14.27
2018-02-27T21:38:17.269Z,14.00
2018-02-27T21:40:44.198Z,14.65
2018-02-27T21:43:10.761Z,16.23
2018-02-27T21:45:37.693Z,13.93
2018-02-27T21:48:04.226Z,14.45
2018-02-27T21:50:30.788Z,14.65
2018-02-27T21:52:57.427Z,14.75
2018-02-27T21:55:24.002Z,15.00
2018-02-27T21:57:50.613Z,14.85
2018-02-27T22:00:17.177Z,13.68
2018-02-27T22:02:43.737Z,14.80
2018-02-27T22:05:10.309Z,16.77
2018-02-27T22:07:37.618Z,15.43
2018-02-27T22:10:04.598Z,14.63
2018-02-27T22:12:31.433Z,14.25
2018-02-27T22:14:58.274Z,15.85
2018-02-27T22:17:25.071Z,14.13
2018-02-27T22:19:51.922Z,13.10
2018-02-27T22:22:25.770Z,14.10
2018-02-27T22:24:52.630Z,12.40
2018-02-27T22:27:19.198Z,13.40
2018-02-27T22:29:45.729Z,12.82
2018-02-27T22:32:12.289Z,13.62
2018-02-27T22:34:38.858Z,12.85
2018-02-27T22:37:05.465Z,12.60
2018-02-27T22:39:32.142Z,13.32
2018-02-27T22:41:58.744Z,12.80
2018-02-27T22:44:25.654Z,12.52
2018-02-27T22:46:52.232Z,12.30
2018-02-27T22:49:18.801Z,14.32
2018-02-27T22:51:45.698Z,13.80
2018-02-27T22:54:12.271Z,13.68
2018-02-27T22:56:38.847Z,14.38
2018-02-27T22:59:05.749Z,13.70
2018-02-27T23:01:32.310Z,13.30
2018-02-27T23:03:58.873Z,14.05
2018-02-27T23:06:25.397Z,13.65
2018-02-27T23:08:51.957Z,12.05
2018-02-27T23:11:18.590Z,12.20
2018-02-27T23:13:45.146Z,13.82
2018-02-27T23:16:11.706Z,12.63
2018-02-27T23:18:38.263Z,12.18
2018-02-27T23:21:04.795Z,12.40
2018-02-27T23:23:31.358Z,13.48
2018-02-27T23:26:02.072Z,12.40
2018-02-27T23:28:31.393Z,12.70
2018-02-27T23:30:58.377Z,12.43
2018-02-27T23:33:41.597Z,11.98
2018-02-27T23:36:08.249Z,11.75
2018-02-27T23:38:34.786Z,13.23
2018-02-27T23:41:01.417Z,12.02
2018-02-27T23:43:27.982Z,12.73
2018-02-27T23:46:01.602Z,11.70
2018-02-27T23:48:28.217Z,11.23
2018-02-27T23:50:54.747Z,12.18
2018-02-27T23:53:21.321Z,10.98
2018-02-27T23:55:47.894Z,10.43
2018-02-27T23:58:14.476Z,12.55
